createdAt,value
2022-09-15T00:02:38.120Z,30.60
2022-09-15T00:07:39.975Z,30.80
2022-09-15T00:12:41.891Z,34.90
2022-09-15T00:17:49.795Z,37.50
2022-09-15T00:22:51.535Z,34.80
2022-09-15T00:27:53.378Z,33.60
2022-09-15T00:32:55.109Z,33.40
2022-09-15T00:37:56.900Z,33.20
2022-09-15T00:42:58.625Z,32.40
2022-09-15T00:48:00.629Z,35.80
2022-09-15T00:53:06.176Z,31.40
2022-09-15T00:58:13.177Z,29.10
2022-09-15T01:03:25.591Z,33.00
2022-09-15T01:08:33.293Z,30.40
2022-09-15T01:13:35.077Z,31.20
2022-09-15T01:19:06.606Z,32.00
2022-09-15T01:24:32.599Z,29.40
2022-09-15T01:30:22.943Z,29.40
2022-09-15T01:35:39.505Z,33.00
2022-09-15T01:41:15.833Z,29.40
2022-09-15T01:46:21.552Z,30.80
2022-09-15T01:51:25.767Z,28.50
2022-09-15T01:56:27.575Z,30.40
2022-09-15T02:01:38.785Z,29.10
2022-09-15T02:07:07.140Z,29.70
2022-09-15T02:12:24.140Z,31.20
2022-09-15T02:17:29.504Z,32.60
2022-09-15T02:22:37.533Z,32.00
2022-09-15T02:27:52.808Z,32.60
2022-09-15T02:32:58.172Z,31.60
2022-09-15T02:38:00.874Z,31.60
2022-09-15T02:43:05.493Z,27.10
2022-09-15T02:48:09.621Z,27.00
2022-09-15T02:53:19.609Z,32.60
2022-09-15T02:58:30.324Z,31.10
2022-09-15T03:03:33.425Z,33.70
2022-09-15T03:08:35.314Z,29.90
2022-09-15T03:13:39.338Z,33.00
2022-09-15T03:18:42.201Z,30.30
2022-09-15T03:23:44.936Z,36.10
2022-09-15T03:28:46.772Z,33.50
2022-09-15T03:33:48.974Z,35.80
2022-09-15T03:38:50.922Z,34.10
2022-09-15T03:43:52.748Z,31.40
2022-09-15T03:48:54.506Z,27.70
2022-09-15T03:53:56.587Z,28.30
2022-09-15T03:58:59.472Z,26.30
2022-09-15T04:04:01.970Z,27.20
2022-09-15T04:09:04.413Z,28.60
2022-09-15T04:14:06.671Z,26.00
2022-09-15T04:19:25.599Z,25.00
2022-09-15T04:24:35.108Z,23.00
2022-09-15T04:29:43.667Z,21.20
2022-09-15T04:34:45.910Z,22.10
2022-09-15T04:39:49.100Z,21.30
2022-09-15T04:44:51.256Z,20.60
2022-09-15T04:49:53.006Z,21.40
2022-09-15T04:54:54.849Z,24.30
2022-09-15T04:59:56.718Z,21.40
2022-09-15T05:04:58.833Z,21.80
2022-09-15T05:10:07.685Z,22.90
2022-09-15T05:15:10.127Z,19.80
2022-09-15T05:20:12.298Z,20.10
2022-09-15T05:25:14.227Z,22.40
2022-09-15T05:30:36.717Z,17.80
2022-09-15T05:35:37.908Z,17.50
2022-09-15T05:40:39.575Z,15.50
2022-09-15T05:45:42.799Z,22.70
2022-09-15T05:50:49.727Z,19.00
2022-09-15T05:56:03.150Z,20.20
2022-09-15T06:01:08.042Z,14.40
2022-09-15T06:06:10.394Z,12.50
2022-09-15T06:11:17.969Z,9.90
2022-09-15T06:16:22.649Z,7.00
2022-09-15T06:21:28.992Z,6.20
2022-09-15T06:26:30.981Z,5.50
2022-09-15T06:31:42.833Z,5.70
2022-09-15T06:36:45.227Z,5.40
2022-09-15T06:42:01.670Z,6.40
2022-09-15T06:47:05.385Z,8.90
2022-09-15T06:52:22.596Z,4.50
2022-09-15T06:57:38.181Z,6.20
2022-09-15T07:02:40.268Z,7.40
2022-09-15T07:07:42.871Z,6.70
2022-09-15T07:12:46.293Z,5.70
2022-09-15T07:17:47.967Z,4.90
2022-09-15T07:22:49.738Z,9.70
2022-09-15T07:27:51.717Z,6.10
2022-09-15T07:32:54.084Z,7.10
2022-09-15T07:37:55.804Z,4.60
2022-09-15T07:42:57.606Z,6.80
2022-09-15T07:47:59.592Z,5.80
2022-09-15T07:53:01.411Z,6.00
2022-09-15T07:58:03.903Z,4.80
2022-09-15T08:03:05.670Z,5.80
2022-09-15T08:08:08.138Z,4.10
2022-09-15T08:13:16.580Z,5.50
2022-09-15T08:18:29.437Z,3.00
2022-09-15T08:23:31.130Z,3.30
2022-09-15T08:28:33.307Z,4.40
2022-09-15T08:33:36.105Z,2.70
2022-09-15T08:38:42.943Z,3.40
2022-09-15T08:44:08.449Z,4.60
2022-09-15T08:49:40.816Z,4.80
2022-09-15T08:54:45.004Z,3.20
2022-09-15T08:59:47.878Z,3.70
2022-09-15T09:05:11.646Z,3.70
2022-09-15T09:10:31.809Z,3.80
2022-09-15T09:15:51.600Z,4.60
2022-09-15T09:21:02.446Z,5.30
2022-09-15T09:26:07.486Z,3.60
2022-09-15T09:31:20.152Z,4.70
2022-09-15T09:36:22.051Z,6.70
2022-09-15T09:41:26.958Z,7.20
2022-09-15T09:46:29.037Z,12.60
2022-09-15T09:51:52.313Z,14.80
2022-09-15T09:56:56.077Z,16.60
2022-09-15T10:02:29.084Z,15.40
2022-09-15T10:07:34.245Z,15.50
2022-09-15T10:12:41.408Z,19.10
2022-09-15T10:17:46.492Z,18.00
2022-09-15T10:22:48.746Z,18.20
2022-09-15T10:28:15.067Z,17.90
2022-09-15T10:33:25.721Z,15.30
2022-09-15T10:38:54.327Z,14.90
2022-09-15T10:44:15.145Z,13.40
2022-09-15T10:49:56.764Z,19.20
2022-09-15T10:55:52.152Z,21.80
2022-09-15T11:01:22.631Z,19.50
2022-09-15T11:07:03.088Z,25.70
2022-09-15T11:12:34.258Z,30.60
2022-09-15T11:18:20.373Z,30.50
2022-09-15T11:23:40.340Z,39.80
2022-09-15T11:28:50.499Z,47.60
2022-09-15T11:34:05.953Z,36.20
2022-09-15T11:39:22.523Z,35.80
2022-09-15T11:44:32.909Z,25.80
2022-09-15T11:49:45.494Z,28.80
2022-09-15T11:54:54.645Z,32.00
2022-09-15T12:00:11.263Z,32.90
2022-09-15T12:05:22.284Z,27.90
2022-09-15T12:10:30.453Z,30.20
2022-09-15T12:15:32.489Z,31.50
2022-09-15T12:20:43.634Z,28.90
2022-09-15T12:26:19.048Z,31.40
2022-09-15T12:31:23.651Z,26.90
2022-09-15T12:36:48.429Z,27.10
2022-09-15T12:41:54.782Z,24.60
2022-09-15T12:46:59.245Z,23.80
2022-09-15T12:52:05.472Z,21.40
2022-09-15T12:57:24.555Z,24.20
2022-09-15T13:02:50.650Z,21.30
2022-09-15T13:07:56.294Z,20.60
2022-09-15T13:13:22.607Z,23.30
2022-09-15T13:18:26.044Z,24.60
2022-09-15T13:23:33.963Z,22.10
2022-09-15T13:28:37.854Z,25.60
2022-09-15T13:40:09.732Z,18.00
2022-09-15T13:45:37.817Z,20.20
2022-09-15T13:51:00.991Z,16.50
2022-09-15T13:56:09.574Z,17.00
2022-09-15T14:01:12.533Z,22.80
2022-09-15T14:06:31.417Z,23.00
2022-09-15T14:11:36.864Z,17.80
2022-09-15T14:16:39.387Z,20.00
2022-09-15T14:21:52.822Z,19.80
2022-09-15T14:27:07.996Z,16.60
2022-09-15T14:32:31.686Z,17.40
2022-09-15T14:37:55.374Z,17.60
2022-09-15T14:42:58.371Z,21.80
2022-09-15T14:48:02.308Z,22.00
2022-09-15T14:53:13.619Z,25.70
2022-09-15T14:58:21.006Z,26.20
2022-09-15T15:03:59.746Z,26.40
2022-09-15T15:09:24.907Z,27.00
2022-09-15T15:14:27.749Z,26.10
2022-09-15T15:19:41.389Z,22.90
2022-09-15T15:24:46.242Z,25.20
2022-09-15T15:29:48.127Z,24.60
2022-09-15T15:34:53.558Z,17.00
2022-09-15T15:40:06.695Z,17.90
2022-09-15T15:45:09.453Z,20.30
2022-09-15T15:50:20.876Z,18.10
2022-09-15T15:55:47.689Z,21.50
2022-09-15T16:00:52.002Z,16.80
2022-09-15T16:05:57.706Z,17.90
2022-09-15T16:11:01.657Z,23.00
2022-09-15T16:16:14.022Z,19.00
2022-09-15T16:21:19.195Z,18.50
2022-09-15T16:26:25.158Z,22.10
2022-09-15T16:31:27.398Z,28.60
2022-09-15T16:36:36.370Z,19.70
2022-09-15T16:41:39.453Z,21.50
2022-09-15T16:46:41.374Z,21.10
2022-09-15T16:52:03.590Z,18.90
2022-09-15T16:57:12.275Z,17.10
2022-09-15T17:02:14.344Z,22.00
2022-09-15T17:07:16.154Z,18.30
2022-09-15T17:12:18.233Z,17.40
2022-09-15T17:17:24.736Z,18.60
2022-09-15T17:22:26.440Z,20.60
2022-09-15T17:27:28.269Z,22.80
2022-09-15T17:32:34.706Z,24.90
2022-09-15T17:37:37.202Z,25.50
2022-09-15T17:42:38.984Z,26.50
2022-09-15T17:47:40.716Z,25.30
2022-09-15T17:52:42.633Z,25.70
2022-09-15T17:57:44.988Z,24.10
2022-09-15T18:02:57.939Z,26.40
2022-09-15T18:08:03.372Z,33.90
2022-09-15T18:13:06.002Z,42.20
2022-09-15T18:18:14.148Z,34.70
2022-09-15T18:23:19.915Z,29.40
2022-09-15T18:28:21.822Z,30.70
2022-09-15T18:33:25.599Z,33.50
2022-09-15T18:38:27.826Z,31.90
2022-09-15T18:43:29.652Z,33.60
2022-09-15T18:48:31.788Z,32.70
2022-09-15T18:53:38.150Z,38.00
2022-09-15T18:58:40.413Z,44.20
2022-09-15T19:03:45.211Z,40.80
2022-09-15T19:08:47.286Z,38.30
2022-09-15T19:13:49.346Z,36.50
2022-09-15T19:18:51.187Z,41.90
2022-09-15T19:23:57.997Z,30.10
2022-09-15T19:28:59.903Z,32.30
2022-09-15T19:34:04.267Z,28.30
2022-09-15T19:39:06.620Z,31.00
2022-09-15T19:44:10.671Z,27.00
2022-09-15T19:49:12.980Z,27.10
2022-09-15T19:54:14.732Z,26.40
2022-09-15T19:59:16.467Z,28.50
2022-09-15T20:04:18.384Z,31.40
2022-09-15T20:09:20.288Z,29.40
2022-09-15T20:14:22.110Z,28.90
2022-09-15T20:19:24.418Z,35.00
2022-09-15T20:24:26.355Z,30.00
2022-09-15T20:29:30.533Z,36.70
2022-09-15T20:34:32.301Z,36.50
2022-09-15T20:39:38.281Z,40.50
2022-09-15T20:44:55.586Z,36.10
2022-09-15T20:50:08.413Z,30.80
2022-09-15T20:55:10.089Z,31.80
2022-09-15T21:00:12.588Z,40.20
2022-09-15T21:05:14.500Z,31.30
2022-09-15T21:10:16.288Z,31.10
2022-09-15T21:15:18.146Z,34.10
2022-09-15T21:20:40.546Z,31.30
2022-09-15T21:26:10.871Z,32.70
2022-09-15T21:31:16.155Z,30.20
2022-09-15T21:36:31.404Z,30.20
2022-09-15T21:41:33.046Z,32.10
2022-09-15T21:46:34.755Z,27.40
2022-09-15T21:51:52.127Z,33.90
2022-09-15T21:56:53.971Z,29.60
2022-09-15T22:01:56.088Z,25.30
2022-09-15T22:06:57.969Z,35.20
2022-09-15T22:11:59.798Z,31.90
2022-09-15T22:17:01.521Z,32.50
2022-09-15T22:22:03.441Z,31.10
2022-09-15T22:27:05.193Z,29.00
2022-09-15T22:32:07.823Z,29.90
2022-09-15T22:37:09.556Z,33.20
2022-09-15T22:42:11.290Z,28.90
2022-09-15T22:47:13.018Z,29.30
2022-09-15T22:52:14.739Z,30.40
2022-09-15T22:57:16.490Z,26.90
2022-09-15T23:02:18.336Z,29.10
2022-09-15T23:07:20.121Z,27.50
2022-09-15T23:12:22.022Z,30.70
2022-09-15T23:17:24.200Z,27.30
2022-09-15T23:22:26.392Z,26.20
2022-09-15T23:27:48.568Z,26.10
2022-09-15T23:32:50.420Z,27.20
2022-09-15T23:37:52.458Z,31.70
2022-09-15T23:42:54.213Z,31.40
2022-09-15T23:47:55.906Z,28.50
2022-09-15T23:52:58.114Z,29.20
2022-09-15T23:57:59.970Z,30.90
